sensor_id;sensor_type;location;lat;lon;timestamp;pressure;altitude;pressure_sealevel;temperature;humidity
38267;BME280;24063;51.794;19.578;2022-09-09T00:01:23;98130.76;;;12.51;100.00
38267;BME280;24063;51.794;19.578;2022-09-09T00:02:31;98131.95;;;12.50;100.00
38267;BME280;24063;51.794;19.578;2022-09-09T00:03:44;98133.14;;;12.51;100.00
38267;BME280;24063;51.794;19.578;2022-09-09T00:05:14;98131.66;;;12.52;100.00
38267;BME280;24063;51.794;19.578;2022-09-09T00:06:33;98136.06;;;12.51;100.00
38267;BME280;24063;51.794;19.578;2022-09-09T00:07:52;98138.58;;;12.50;100.00
38267;BME280;24063;51.794;19.578;2022-09-09T00:11:46;98138.36;;;12.50;100.00
38267;BME280;24063;51.794;19.578;2022-09-09T00:13:27;98133.15;;;12.49;100.00
38267;BME280;24063;51.794;19.578;2022-09-09T00:16:21;98131.04;;;12.50;100.00
38267;BME280;24063;51.794;19.578;2022-09-09T00:19:27;98132.55;;;12.44;100.00
38267;BME280;24063;51.794;19.578;2022-09-09T00:20:20;98127.94;;;12.41;100.00
38267;BME280;24063;51.794;19.578;2022-09-09T00:21:32;98124.64;;;12.40;100.00
38267;BME280;24063;51.794;19.578;2022-09-09T00:22:39;98128.05;;;12.41;100.00
38267;BME280;24063;51.794;19.578;2022-09-09T00:23:56;98125.66;;;12.41;100.00
38267;BME280;24063;51.794;19.578;2022-09-09T00:25:19;98124.99;;;12.42;100.00
38267;BME280;24063;51.794;19.578;2022-09-09T00:26:56;98125.05;;;12.41;100.00
38267;BME280;24063;51.794;19.578;2022-09-09T00:28:01;98121.98;;;12.41;100.00
38267;BME280;24063;51.794;19.578;2022-09-09T00:30:22;98126.44;;;12.40;100.00
38267;BME280;24063;51.794;19.578;2022-09-09T00:31:29;98128.60;;;12.40;100.00
38267;BME280;24063;51.794;19.578;2022-09-09T00:32:33;98126.73;;;12.41;100.00
38267;BME280;24063;51.794;19.578;2022-09-09T00:33:37;98124.25;;;12.41;100.00
38267;BME280;24063;51.794;19.578;2022-09-09T00:34:56;98124.63;;;12.41;100.00
38267;BME280;24063;51.794;19.578;2022-09-09T00:36:01;98120.42;;;12.41;100.00
38267;BME280;24063;51.794;19.578;2022-09-09T00:37:05;98119.30;;;12.41;100.00
38267;BME280;24063;51.794;19.578;2022-09-09T00:38:16;98118.98;;;12.42;100.00
38267;BME280;24063;51.794;19.578;2022-09-09T00:39:36;98116.16;;;12.42;100.00
38267;BME280;24063;51.794;19.578;2022-09-09T00:42:17;98114.55;;;12.41;100.00
38267;BME280;24063;51.794;19.578;2022-09-09T00:43:36;98113.41;;;12.41;100.00
38267;BME280;24063;51.794;19.578;2022-09-09T00:44:38;98115.67;;;12.42;100.00
38267;BME280;24063;51.794;19.578;2022-09-09T00:48:11;98108.75;;;12.44;100.00
38267;BME280;24063;51.794;19.578;2022-09-09T00:54:59;98110.61;;;12.46;100.00
38267;BME280;24063;51.794;19.578;2022-09-09T00:56:09;98110.01;;;12.50;100.00
38267;BME280;24063;51.794;19.578;2022-09-09T00:57:22;98111.93;;;12.51;100.00
38267;BME280;24063;51.794;19.578;2022-09-09T00:58:25;98111.23;;;12.51;100.00
38267;BME280;24063;51.794;19.578;2022-09-09T00:59:49;98112.97;;;12.50;100.00
38267;BME280;24063;51.794;19.578;2022-09-09T01:01:11;98110.69;;;12.51;100.00
38267;BME280;24063;51.794;19.578;2022-09-09T01:04:09;98110.80;;;12.57;100.00
38267;BME280;24063;51.794;19.578;2022-09-09T01:06:37;98110.44;;;12.58;100.00
38267;BME280;24063;51.794;19.578;2022-09-09T01:07:46;98113.02;;;12.59;100.00
38267;BME280;24063;51.794;19.578;2022-09-09T01:10:07;98116.89;;;12.59;100.00
38267;BME280;24063;51.794;19.578;2022-09-09T01:12:42;98122.39;;;12.60;100.00
38267;BME280;24063;51.794;19.578;2022-09-09T01:13:58;98122.93;;;12.60;100.00
38267;BME280;24063;51.794;19.578;2022-09-09T01:15:25;98126.48;;;12.59;100.00
38267;BME280;24063;51.794;19.578;2022-09-09T01:16:29;98126.45;;;12.57;100.00
38267;BME280;24063;51.794;19.578;2022-09-09T01:18:53;98125.40;;;12.58;100.00
38267;BME280;24063;51.794;19.578;2022-09-09T01:21:27;98127.60;;;12.59;100.00
38267;BME280;24063;51.794;19.578;2022-09-09T01:22:44;98131.22;;;12.60;100.00
38267;BME280;24063;51.794;19.578;2022-09-09T01:24:17;98130.64;;;12.62;100.00
38267;BME280;24063;51.794;19.578;2022-09-09T01:26:09;98131.91;;;12.64;100.00
38267;BME280;24063;51.794;19.578;2022-09-09T01:27:17;98132.90;;;12.64;100.00
38267;BME280;24063;51.794;19.578;2022-09-09T01:28:25;98134.46;;;12.64;100.00
38267;BME280;24063;51.794;19.578;2022-09-09T01:29:32;98132.52;;;12.64;100.00
38267;BME280;24063;51.794;19.578;2022-09-09T01:30:38;98136.02;;;12.64;100.00
38267;BME280;24063;51.794;19.578;2022-09-09T01:31:58;98138.44;;;12.63;100.00
38267;BME280;24063;51.794;19.578;2022-09-09T01:33:00;98136.98;;;12.62;100.00
38267;BME280;24063;51.794;19.578;2022-09-09T01:34:13;98136.08;;;12.61;100.00
38267;BME280;24063;51.794;19.578;2022-09-09T01:35:35;98137.06;;;12.61;100.00
38267;BME280;24063;51.794;19.578;2022-09-09T01:36:49;98135.83;;;12.61;100.00
38267;BME280;24063;51.794;19.578;2022-09-09T01:37:54;98142.20;;;12.61;100.00
38267;BME280;24063;51.794;19.578;2022-09-09T01:38:56;98139.98;;;12.62;100.00
38267;BME280;24063;51.794;19.578;2022-09-09T01:39:58;98144.20;;;12.62;100.00
38267;BME280;24063;51.794;19.578;2022-09-09T01:41:01;98142.94;;;12.63;100.00
38267;BME280;24063;51.794;19.578;2022-09-09T01:42:15;98143.80;;;12.63;100.00
38267;BME280;24063;51.794;19.578;2022-09-09T01:43:20;98143.80;;;12.63;100.00
38267;BME280;24063;51.794;19.578;2022-09-09T01:44:25;98142.06;;;12.63;100.00
38267;BME280;24063;51.794;19.578;2022-09-09T01:45:28;98139.21;;;12.62;100.00
38267;BME280;24063;51.794;19.578;2022-09-09T01:46:30;98141.16;;;12.62;100.00
38267;BME280;24063;51.794;19.578;2022-09-09T01:47:34;98147.51;;;12.62;100.00
38267;BME280;24063;51.794;19.578;2022-09-09T01:48:45;98153.04;;;12.62;100.00
38267;BME280;24063;51.794;19.578;2022-09-09T01:49:47;98157.27;;;12.62;100.00
38267;BME280;24063;51.794;19.578;2022-09-09T01:50:55;98156.84;;;12.61;100.00
38267;BME280;24063;51.794;19.578;2022-09-09T01:51:58;98157.65;;;12.62;100.00
38267;BME280;24063;51.794;19.578;2022-09-09T01:53:08;98159.90;;;12.63;100.00
38267;BME280;24063;51.794;19.578;2022-09-09T01:54:11;98163.10;;;12.66;100.00
38267;BME280;24063;51.794;19.578;2022-09-09T01:55:13;98160.44;;;12.70;100.00
38267;BME280;24063;51.794;19.578;2022-09-09T01:58:03;98163.19;;;12.71;100.00
38267;BME280;24063;51.794;19.578;2022-09-09T02:00:46;98168.45;;;12.61;100.00
38267;BME280;24063;51.794;19.578;2022-09-09T02:02:26;98169.36;;;12.59;100.00
38267;BME280;24063;51.794;19.578;2022-09-09T02:03:57;98172.92;;;12.57;100.00
38267;BME280;24063;51.794;19.578;2022-09-09T02:07:46;98174.05;;;12.52;100.00
38267;BME280;24063;51.794;19.578;2022-09-09T02:09:06;98175.05;;;12.50;100.00
38267;BME280;24063;51.794;19.578;2022-09-09T02:10:17;98177.08;;;12.50;100.00
38267;BME280;24063;51.794;19.578;2022-09-09T02:11:28;98177.11;;;12.50;100.00
38267;BME280;24063;51.794;19.578;2022-09-09T02:12:40;98175.70;;;12.51;100.00
38267;BME280;24063;51.794;19.578;2022-09-09T02:13:47;98174.92;;;12.48;100.00
38267;BME280;24063;51.794;19.578;2022-09-09T02:14:56;98165.86;;;12.46;100.00
38267;BME280;24063;51.794;19.578;2022-09-09T02:16:08;98166.27;;;12.43;100.00
38267;BME280;24063;51.794;19.578;2022-09-09T02:17:15;98162.77;;;12.42;100.00
38267;BME280;24063;51.794;19.578;2022-09-09T02:19:25;98161.42;;;12.42;100.00
38267;BME280;24063;51.794;19.578;2022-09-09T02:20:37;98162.93;;;12.42;100.00
38267;BME280;24063;51.794;19.578;2022-09-09T02:21:43;98166.21;;;12.41;100.00
38267;BME280;24063;51.794;19.578;2022-09-09T02:22:50;98168.94;;;12.40;100.00
38267;BME280;24063;51.794;19.578;2022-09-09T02:23:56;98172.17;;;12.41;100.00
38267;BME280;24063;51.794;19.578;2022-09-09T02:25:03;98169.34;;;12.42;100.00
38267;BME280;24063;51.794;19.578;2022-09-09T02:26:11;98171.34;;;12.42;100.00
38267;BME280;24063;51.794;19.578;2022-09-09T02:27:17;98170.54;;;12.44;100.00
38267;BME280;24063;51.794;19.578;2022-09-09T02:28:22;98173.36;;;12.47;100.00
38267;BME280;24063;51.794;19.578;2022-09-09T02:29:39;98174.19;;;12.50;100.00
38267;BME280;24063;51.794;19.578;2022-09-09T02:30:46;98171.27;;;12.52;100.00
38267;BME280;24063;51.794;19.578;2022-09-09T02:31:55;98170.55;;;12.52;100.00
38267;BME280;24063;51.794;19.578;2022-09-09T02:33:04;98169.45;;;12.52;100.00
38267;BME280;24063;51.794;19.578;2022-09-09T02:34:19;98170.90;;;12.50;100.00
38267;BME280;24063;51.794;19.578;2022-09-09T02:35:24;98167.45;;;12.51;100.00
38267;BME280;24063;51.794;19.578;2022-09-09T02:36:32;98170.42;;;12.51;100.00
38267;BME280;24063;51.794;19.578;2022-09-09T02:37:38;98169.40;;;12.53;100.00
38267;BME280;24063;51.794;19.578;2022-09-09T02:38:46;98170.84;;;12.55;100.00
38267;BME280;24063;51.794;19.578;2022-09-09T02:39:52;98170.73;;;12.58;100.00
38267;BME280;24063;51.794;19.578;2022-09-09T02:40:55;98171.39;;;12.58;100.00
38267;BME280;24063;51.794;19.578;2022-09-09T02:41:57;98173.34;;;12.58;100.00
38267;BME280;24063;51.794;19.578;2022-09-09T02:43:04;98172.52;;;12.59;100.00
38267;BME280;24063;51.794;19.578;2022-09-09T02:44:14;98169.44;;;12.58;100.00
38267;BME280;24063;51.794;19.578;2022-09-09T02:45:24;98170.65;;;12.56;100.00
38267;BME280;24063;51.794;19.578;2022-09-09T02:46:41;98172.48;;;12.54;100.00
38267;BME280;24063;51.794;19.578;2022-09-09T02:47:59;98173.41;;;12.54;100.00
38267;BME280;24063;51.794;19.578;2022-09-09T02:49:11;98169.02;;;12.55;100.00
38267;BME280;24063;51.794;19.578;2022-09-09T02:50:23;98171.95;;;12.55;100.00
38267;BME280;24063;51.794;19.578;2022-09-09T02:51:35;98168.86;;;12.53;100.00
38267;BME280;24063;51.794;19.578;2022-09-09T02:54:17;98166.52;;;12.49;100.00
38267;BME280;24063;51.794;19.578;2022-09-09T02:56:40;98173.45;;;12.48;100.00
38267;BME280;24063;51.794;19.578;2022-09-09T02:57:47;98173.81;;;12.49;100.00
38267;BME280;24063;51.794;19.578;2022-09-09T02:58:50;98173.27;;;12.52;100.00
38267;BME280;24063;51.794;19.578;2022-09-09T02:59:57;98179.95;;;12.55;100.00
38267;BME280;24063;51.794;19.578;2022-09-09T03:00:59;98181.19;;;12.59;100.00
38267;BME280;24063;51.794;19.578;2022-09-09T03:02:04;98181.41;;;12.61;100.00
38267;BME280;24063;51.794;19.578;2022-09-09T03:03:08;98180.81;;;12.64;100.00
38267;BME280;24063;51.794;19.578;2022-09-09T03:04:13;98180.85;;;12.65;100.00
38267;BME280;24063;51.794;19.578;2022-09-09T03:05:15;98180.79;;;12.65;100.00
38267;BME280;24063;51.794;19.578;2022-09-09T03:06:17;98178.73;;;12.65;100.00
38267;BME280;24063;51.794;19.578;2022-09-09T03:07:21;98179.94;;;12.64;100.00
38267;BME280;24063;51.794;19.578;2022-09-09T03:08:24;98183.30;;;12.65;100.00
38267;BME280;24063;51.794;19.578;2022-09-09T03:09:27;98183.79;;;12.65;100.00
38267;BME280;24063;51.794;19.578;2022-09-09T03:10:28;98180.65;;;12.64;100.00
38267;BME280;24063;51.794;19.578;2022-09-09T03:11:31;98180.52;;;12.63;100.00
38267;BME280;24063;51.794;19.578;2022-09-09T03:12:32;98179.83;;;12.62;100.00
38267;BME280;24063;51.794;19.578;2022-09-09T03:13:35;98176.53;;;12.61;100.00
38267;BME280;24063;51.794;19.578;2022-09-09T03:14:38;98178.52;;;12.62;100.00
38267;BME280;24063;51.794;19.578;2022-09-09T03:15:40;98178.60;;;12.64;100.00
38267;BME280;24063;51.794;19.578;2022-09-09T03:16:43;98177.29;;;12.65;100.00
38267;BME280;24063;51.794;19.578;2022-09-09T03:17:45;98182.52;;;12.66;100.00
38267;BME280;24063;51.794;19.578;2022-09-09T03:18:47;98178.45;;;12.66;100.00
38267;BME280;24063;51.794;19.578;2022-09-09T03:19:49;98178.59;;;12.68;100.00
38267;BME280;24063;51.794;19.578;2022-09-09T03:20:54;98175.98;;;12.69;100.00
38267;BME280;24063;51.794;19.578;2022-09-09T03:21:56;98176.41;;;12.70;100.00
38267;BME280;24063;51.794;19.578;2022-09-09T03:22:59;98171.84;;;12.72;100.00
38267;BME280;24063;51.794;19.578;2022-09-09T03:24:01;98171.83;;;12.73;100.00
38267;BME280;24063;51.794;19.578;2022-09-09T03:25:05;98174.96;;;12.76;100.00
38267;BME280;24063;51.794;19.578;2022-09-09T03:26:07;98172.82;;;12.78;100.00
38267;BME280;24063;51.794;19.578;2022-09-09T03:27:14;98172.41;;;12.79;100.00
38267;BME280;24063;51.794;19.578;2022-09-09T03:28:16;98175.59;;;12.78;100.00
38267;BME280;24063;51.794;19.578;2022-09-09T03:29:17;98174.01;;;12.75;100.00
38267;BME280;24063;51.794;19.578;2022-09-09T03:30:21;98172.52;;;12.74;100.00
38267;BME280;24063;51.794;19.578;2022-09-09T03:31:23;98174.29;;;12.72;100.00
38267;BME280;24063;51.794;19.578;2022-09-09T03:32:25;98174.73;;;12.72;100.00
38267;BME280;24063;51.794;19.578;2022-09-09T03:33:28;98179.61;;;12.71;100.00
38267;BME280;24063;51.794;19.578;2022-09-09T03:34:31;98181.95;;;12.71;100.00
38267;BME280;24063;51.794;19.578;2022-09-09T03:35:33;98181.24;;;12.71;100.00
38267;BME280;24063;51.794;19.578;2022-09-09T03:36:35;98183.23;;;12.72;100.00
38267;BME280;24063;51.794;19.578;2022-09-09T03:37:38;98182.85;;;12.72;100.00
38267;BME280;24063;51.794;19.578;2022-09-09T03:38:41;98186.98;;;12.72;100.00
38267;BME280;24063;51.794;19.578;2022-09-09T03:39:43;98186.27;;;12.72;100.00
38267;BME280;24063;51.794;19.578;2022-09-09T03:40:53;98185.74;;;12.71;100.00
38267;BME280;24063;51.794;19.578;2022-09-09T03:41:57;98182.16;;;12.71;100.00
38267;BME280;24063;51.794;19.578;2022-09-09T03:42:58;98182.55;;;12.73;100.00
38267;BME280;24063;51.794;19.578;2022-09-09T03:44:01;98184.95;;;12.75;100.00
38267;BME280;24063;51.794;19.578;2022-09-09T03:45:07;98182.48;;;12.75;100.00
38267;BME280;24063;51.794;19.578;2022-09-09T03:46:11;98186.56;;;12.77;100.00
38267;BME280;24063;51.794;19.578;2022-09-09T03:47:13;98191.45;;;12.78;100.00
38267;BME280;24063;51.794;19.578;2022-09-09T03:48:16;98188.10;;;12.78;100.00
38267;BME280;24063;51.794;19.578;2022-09-09T03:49:18;98193.81;;;12.78;100.00
38267;BME280;24063;51.794;19.578;2022-09-09T03:50:21;98192.02;;;12.78;100.00
38267;BME280;24063;51.794;19.578;2022-09-09T03:51:23;98191.52;;;12.78;100.00
38267;BME280;24063;51.794;19.578;2022-09-09T03:52:25;98189.70;;;12.79;100.00
38267;BME280;24063;51.794;19.578;2022-09-09T03:53:28;98188.85;;;12.82;100.00
38267;BME280;24063;51.794;19.578;2022-09-09T03:54:30;98188.55;;;12.83;100.00
38267;BME280;24063;51.794;19.578;2022-09-09T03:55:32;98191.67;;;12.85;100.00
38267;BME280;24063;51.794;19.578;2022-09-09T03:56:34;98192.48;;;12.85;100.00
38267;BME280;24063;51.794;19.578;2022-09-09T03:57:37;98189.79;;;12.84;100.00
38267;BME280;24063;51.794;19.578;2022-09-09T03:58:41;98192.21;;;12.85;100.00
38267;BME280;24063;51.794;19.578;2022-09-09T03:59:44;98194.38;;;12.85;100.00
38267;BME280;24063;51.794;19.578;2022-09-09T04:00:58;98190.06;;;12.84;100.00
38267;BME280;24063;51.794;19.578;2022-09-09T04:02:01;98191.45;;;12.85;100.00
38267;BME280;24063;51.794;19.578;2022-09-09T04:03:03;98196.45;;;12.88;100.00
38267;BME280;24063;51.794;19.578;2022-09-09T04:04:05;98193.50;;;12.89;100.00
38267;BME280;24063;51.794;19.578;2022-09-09T04:05:07;98198.79;;;12.90;100.00
38267;BME280;24063;51.794;19.578;2022-09-09T04:06:10;98196.16;;;12.91;100.00
38267;BME280;24063;51.794;19.578;2022-09-09T04:07:14;98197.41;;;12.91;100.00
38267;BME280;24063;51.794;19.578;2022-09-09T04:08:18;98198.48;;;12.92;100.00
38267;BME280;24063;51.794;19.578;2022-09-09T04:09:20;98194.00;;;12.93;100.00
38267;BME280;24063;51.794;19.578;2022-09-09T04:10:22;98197.06;;;12.95;100.00
38267;BME280;24063;51.794;19.578;2022-09-09T04:11:25;98198.27;;;12.97;100.00
38267;BME280;24063;51.794;19.578;2022-09-09T04:12:27;98197.71;;;12.99;100.00
38267;BME280;24063;51.794;19.578;2022-09-09T04:13:29;98202.51;;;13.00;100.00
38267;BME280;24063;51.794;19.578;2022-09-09T04:14:32;98200.25;;;13.01;100.00
38267;BME280;24063;51.794;19.578;2022-09-09T04:15:34;98198.84;;;13.02;100.00
38267;BME280;24063;51.794;19.578;2022-09-09T04:16:37;98199.92;;;13.02;100.00
38267;BME280;24063;51.794;19.578;2022-09-09T04:17:39;98203.12;;;13.02;100.00
38267;BME280;24063;51.794;19.578;2022-09-09T04:18:41;98203.02;;;13.02;100.00
38267;BME280;24063;51.794;19.578;2022-09-09T04:19:43;98202.09;;;13.02;100.00
38267;BME280;24063;51.794;19.578;2022-09-09T04:20:49;98201.38;;;13.03;100.00
38267;BME280;24063;51.794;19.578;2022-09-09T04:21:52;98201.85;;;13.03;100.00
38267;BME280;24063;51.794;19.578;2022-09-09T04:22:55;98202.61;;;13.03;100.00
38267;BME280;24063;51.794;19.578;2022-09-09T04:23:57;98201.64;;;13.02;100.00
38267;BME280;24063;51.794;19.578;2022-09-09T04:24:59;98203.55;;;13.02;100.00
38267;BME280;24063;51.794;19.578;2022-09-09T04:26:03;98203.02;;;13.02;100.00
38267;BME280;24063;51.794;19.578;2022-09-09T04:27:06;98201.71;;;13.02;100.00
38267;BME280;24063;51.794;19.578;2022-09-09T04:28:09;98205.20;;;13.03;100.00
38267;BME280;24063;51.794;19.578;2022-09-09T04:29:11;98206.27;;;13.05;100.00
38267;BME280;24063;51.794;19.578;2022-09-09T04:30:14;98209.04;;;13.02;100.00
38267;BME280;24063;51.794;19.578;2022-09-09T04:31:21;98205.90;;;12.98;100.00
38267;BME280;24063;51.794;19.578;2022-09-09T04:32:27;98204.35;;;12.97;100.00
38267;BME280;24063;51.794;19.578;2022-09-09T04:33:29;98204.64;;;12.97;100.00
38267;BME280;24063;51.794;19.578;2022-09-09T04:34:36;98205.77;;;12.96;100.00
38267;BME280;24063;51.794;19.578;2022-09-09T04:35:39;98206.06;;;12.96;100.00
38267;BME280;24063;51.794;19.578;2022-09-09T04:36:45;98204.85;;;12.96;100.00
38267;BME280;24063;51.794;19.578;2022-09-09T04:37:47;98204.17;;;12.95;100.00
38267;BME280;24063;51.794;19.578;2022-09-09T04:38:51;98206.02;;;12.96;100.00
38267;BME280;24063;51.794;19.578;2022-09-09T04:39:52;98205.14;;;12.96;100.00
38267;BME280;24063;51.794;19.578;2022-09-09T04:40:54;98203.27;;;12.94;100.00
38267;BME280;24063;51.794;19.578;2022-09-09T04:41:56;98206.01;;;12.93;100.00
38267;BME280;24063;51.794;19.578;2022-09-09T04:43:00;98200.05;;;12.92;100.00
38267;BME280;24063;51.794;19.578;2022-09-09T04:44:02;98201.89;;;12.92;100.00
38267;BME280;24063;51.794;19.578;2022-09-09T04:45:06;98197.73;;;12.89;100.00
38267;BME280;24063;51.794;19.578;2022-09-09T04:46:08;98200.96;;;12.90;100.00
38267;BME280;24063;51.794;19.578;2022-09-09T04:47:11;98199.90;;;12.91;100.00
38267;BME280;24063;51.794;19.578;2022-09-09T04:48:13;98200.83;;;12.91;100.00
38267;BME280;24063;51.794;19.578;2022-09-09T04:49:15;98200.94;;;12.91;100.00
38267;BME280;24063;51.794;19.578;2022-09-09T04:50:17;98199.27;;;12.91;100.00
38267;BME280;24063;51.794;19.578;2022-09-09T04:51:21;98202.77;;;12.92;100.00
38267;BME280;24063;51.794;19.578;2022-09-09T04:52:23;98200.57;;;12.94;100.00
38267;BME280;24063;51.794;19.578;2022-09-09T04:53:25;98198.89;;;12.96;100.00
38267;BME280;24063;51.794;19.578;2022-09-09T04:54:27;98202.85;;;12.99;100.00
38267;BME280;24063;51.794;19.578;2022-09-09T04:55:30;98205.66;;;13.02;100.00
38267;BME280;24063;51.794;19.578;2022-09-09T04:56:32;98206.35;;;13.06;100.00
38267;BME280;24063;51.794;19.578;2022-09-09T04:57:34;98204.61;;;13.09;100.00
38267;BME280;24063;51.794;19.578;2022-09-09T04:58:37;98206.31;;;13.11;100.00
38267;BME280;24063;51.794;19.578;2022-09-09T04:59:40;98208.00;;;13.13;100.00
38267;BME280;24063;51.794;19.578;2022-09-09T05:00:41;98207.91;;;13.16;100.00
38267;BME280;24063;51.794;19.578;2022-09-09T05:01:43;98206.45;;;13.18;100.00
38267;BME280;24063;51.794;19.578;2022-09-09T05:02:46;98206.85;;;13.19;100.00
38267;BME280;24063;51.794;19.578;2022-09-09T05:03:49;98209.02;;;13.20;100.00
38267;BME280;24063;51.794;19.578;2022-09-09T05:04:53;98207.33;;;13.22;100.00
38267;BME280;24063;51.794;19.578;2022-09-09T05:06:02;98206.55;;;13.23;100.00
38267;BME280;24063;51.794;19.578;2022-09-09T05:07:05;98210.36;;;13.25;100.00
38267;BME280;24063;51.794;19.578;2022-09-09T05:08:08;98211.09;;;13.27;100.00
38267;BME280;24063;51.794;19.578;2022-09-09T05:09:10;98206.25;;;13.28;100.00
38267;BME280;24063;51.794;19.578;2022-09-09T05:10:12;98202.75;;;13.26;100.00
38267;BME280;24063;51.794;19.578;2022-09-09T05:11:21;98207.14;;;13.30;100.00
38267;BME280;24063;51.794;19.578;2022-09-09T05:12:26;98209.17;;;13.33;100.00
38267;BME280;24063;51.794;19.578;2022-09-09T05:13:29;98212.80;;;13.33;100.00
38267;BME280;24063;51.794;19.578;2022-09-09T05:14:33;98215.35;;;13.36;100.00
38267;BME280;24063;51.794;19.578;2022-09-09T05:15:38;98211.83;;;13.38;100.00
38267;BME280;24063;51.794;19.578;2022-09-09T05:16:40;98214.02;;;13.40;100.00
38267;BME280;24063;51.794;19.578;2022-09-09T05:17:42;98217.10;;;13.43;100.00
38267;BME280;24063;51.794;19.578;2022-09-09T05:18:44;98212.83;;;13.46;100.00
38267;BME280;24063;51.794;19.578;2022-09-09T05:19:47;98215.92;;;13.48;100.00
38267;BME280;24063;51.794;19.578;2022-09-09T05:20:50;98214.36;;;13.52;100.00
38267;BME280;24063;51.794;19.578;2022-09-09T05:21:52;98216.35;;;13.56;100.00
38267;BME280;24063;51.794;19.578;2022-09-09T05:22:58;98215.67;;;13.59;100.00
38267;BME280;24063;51.794;19.578;2022-09-09T05:24:02;98215.49;;;13.63;100.00
38267;BME280;24063;51.794;19.578;2022-09-09T05:25:04;98215.58;;;13.66;100.00
38267;BME280;24063;51.794;19.578;2022-09-09T05:26:11;98216.63;;;13.68;100.00
38267;BME280;24063;51.794;19.578;2022-09-09T05:27:19;98213.41;;;13.73;100.00
38267;BME280;24063;51.794;19.578;2022-09-09T05:28:22;98208.89;;;13.77;100.00
38267;BME280;24063;51.794;19.578;2022-09-09T05:29:24;98210.27;;;13.81;100.00
38267;BME280;24063;51.794;19.578;2022-09-09T05:30:25;98215.48;;;13.86;100.00
38267;BME280;24063;51.794;19.578;2022-09-09T05:31:29;98211.86;;;13.89;100.00
38267;BME280;24063;51.794;19.578;2022-09-09T05:32:34;98214.73;;;13.95;100.00
38267;BME280;24063;51.794;19.578;2022-09-09T05:33:36;98214.46;;;14.00;100.00
38267;BME280;24063;51.794;19.578;2022-09-09T05:34:37;98214.25;;;14.04;100.00
38267;BME280;24063;51.794;19.578;2022-09-09T05:35:41;98218.46;;;14.06;100.00
38267;BME280;24063;51.794;19.578;2022-09-09T05:36:42;98218.86;;;14.07;100.00
38267;BME280;24063;51.794;19.578;2022-09-09T05:37:44;98222.99;;;14.09;100.00
38267;BME280;24063;51.794;19.578;2022-09-09T05:38:48;98222.51;;;14.12;100.00
38267;BME280;24063;51.794;19.578;2022-09-09T05:39:51;98223.36;;;14.14;100.00
38267;BME280;24063;51.794;19.578;2022-09-09T05:40:53;98228.45;;;14.17;100.00
38267;BME280;24063;51.794;19.578;2022-09-09T05:41:55;98226.63;;;14.19;100.00
38267;BME280;24063;51.794;19.578;2022-09-09T05:42:59;98229.60;;;14.20;100.00
38267;BME280;24063;51.794;19.578;2022-09-09T05:44:01;98230.06;;;14.18;100.00
38267;BME280;24063;51.794;19.578;2022-09-09T05:45:05;98227.67;;;14.18;100.00
38267;BME280;24063;51.794;19.578;2022-09-09T05:46:11;98231.05;;;14.19;100.00
38267;BME280;24063;51.794;19.578;2022-09-09T05:47:14;98232.01;;;14.20;100.00
38267;BME280;24063;51.794;19.578;2022-09-09T05:48:17;98231.38;;;14.21;100.00
38267;BME280;24063;51.794;19.578;2022-09-09T05:49:19;98227.35;;;14.23;100.00
38267;BME280;24063;51.794;19.578;2022-09-09T05:50:22;98228.75;;;14.26;100.00
38267;BME280;24063;51.794;19.578;2022-09-09T05:51:28;98226.33;;;14.27;100.00
38267;BME280;24063;51.794;19.578;2022-09-09T05:52:32;98233.36;;;14.29;100.00
38267;BME280;24063;51.794;19.578;2022-09-09T05:53:35;98229.17;;;14.31;100.00
38267;BME280;24063;51.794;19.578;2022-09-09T05:54:37;98229.64;;;14.34;100.00
38267;BME280;24063;51.794;19.578;2022-09-09T05:55:39;98227.14;;;14.38;100.00
38267;BME280;24063;51.794;19.578;2022-09-09T05:56:41;98234.40;;;14.42;100.00
38267;BME280;24063;51.794;19.578;2022-09-09T05:57:48;98233.77;;;14.43;100.00
38267;BME280;24063;51.794;19.578;2022-09-09T05:58:50;98236.36;;;14.44;100.00
38267;BME280;24063;51.794;19.578;2022-09-09T05:59:53;98235.66;;;14.44;100.00
38267;BME280;24063;51.794;19.578;2022-09-09T06:01:07;98240.80;;;14.45;100.00
38267;BME280;24063;51.794;19.578;2022-09-09T06:02:09;98241.33;;;14.45;100.00
38267;BME280;24063;51.794;19.578;2022-09-09T06:03:11;98243.49;;;14.46;100.00
38267;BME280;24063;51.794;19.578;2022-09-09T06:04:14;98241.61;;;14.45;100.00
38267;BME280;24063;51.794;19.578;2022-09-09T06:05:16;98241.25;;;14.48;100.00
38267;BME280;24063;51.794;19.578;2022-09-09T06:06:32;98243.64;;;14.49;100.00
38267;BME280;24063;51.794;19.578;2022-09-09T06:07:39;98239.48;;;14.50;100.00
38267;BME280;24063;51.794;19.578;2022-09-09T06:08:44;98242.47;;;14.52;100.00
38267;BME280;24063;51.794;19.578;2022-09-09T06:09:47;98244.05;;;14.54;100.00
38267;BME280;24063;51.794;19.578;2022-09-09T06:10:48;98240.61;;;14.57;100.00
38267;BME280;24063;51.794;19.578;2022-09-09T06:11:50;98243.41;;;14.59;100.00
38267;BME280;24063;51.794;19.578;2022-09-09T06:12:53;98241.30;;;14.61;100.00
38267;BME280;24063;51.794;19.578;2022-09-09T06:13:55;98244.70;;;14.62;100.00
38267;BME280;24063;51.794;19.578;2022-09-09T06:14:57;98247.19;;;14.63;100.00
38267;BME280;24063;51.794;19.578;2022-09-09T06:15:59;98244.16;;;14.65;100.00
38267;BME280;24063;51.794;19.578;2022-09-09T06:17:02;98245.65;;;14.68;100.00
38267;BME280;24063;51.794;19.578;2022-09-09T06:18:04;98245.73;;;14.71;100.00